Time;durP1;ratioP1;P1;durP2;ratioP2;P2;SDS_P1;SDS_P2;PMS_P1;PMS_P2;Temp;Humidity;BMP_temperature;BMP_pressure;BME280_temperature;BME280_humidity;BME280_pressure;Samples;Min_cycle;Max_cycle;Signal;HPM_P1;HPM_P2
2022/05/02 00:01:58;;;;;;;12.10;10.80;;;;;;;9.40;100.00;100988.53;5025966;28;20035;-61
2022/05/02 00:04:24;;;;;;;16.90;12.35;;;;;;;9.42;100.00;100977.13;5026942;28;20033;-61
2022/05/02 00:06:49;;;;;;;13.10;10.77;;;;;;;9.58;100.00;101015.00;5035804;28;20382;-61
2022/05/02 00:09:14;;;;;;;14.32;9.98;;;;;;;9.56;100.00;101005.47;5073550;28;20082;-61
2022/05/02 00:11:40;;;;;;;13.63;11.38;;;;;;;9.41;100.00;100969.28;5073546;28;20447;-61
2022/05/02 00:14:05;;;;;;;13.60;11.70;;;;;;;9.57;100.00;101004.53;5073475;28;20032;-61
2022/05/02 00:16:30;;;;;;;12.63;9.88;;;;;;;9.48;100.00;100991.75;5073411;28;20032;-61
2022/05/02 00:18:56;;;;;;;13.27;10.63;;;;;;;9.54;100.00;101002.03;5060955;28;20082;-61
2022/05/02 00:21:21;;;;;;;13.18;10.68;;;;;;;9.37;100.00;100979.03;5041045;28;20081;-60
2022/05/02 00:23:46;;;;;;;14.10;11.13;;;;;;;9.48;100.00;100992.63;5073638;28;20359;-60
2022/05/02 00:26:12;;;;;;;14.77;11.70;;;;;;;9.32;100.00;100970.50;5072943;28;20074;-62
2022/05/02 00:28:37;;;;;;;18.80;12.00;;;;;;;9.46;100.00;100993.59;5073302;28;20068;-61
2022/05/02 00:31:03;;;;;;;14.13;11.80;;;;;;;9.47;100.00;100987.41;5026584;28;20285;-61
2022/05/02 00:33:29;;;;;;;11.63;9.30;;;;;;;9.16;100.00;100943.06;5025434;28;20069;-61
2022/05/02 00:35:54;;;;;;;13.48;11.70;;;;;;;9.42;100.00;100992.00;5026524;28;20035;-62
2022/05/02 00:38:20;;;;;;;13.98;11.57;;;;;;;9.40;100.00;100978.91;5025803;28;20900;-61
2022/05/02 00:40:45;;;;;;;12.70;10.80;;;;;;;9.32;100.00;100982.75;5019238;28;20090;-61
2022/05/02 00:43:11;;;;;;;13.07;10.52;;;;;;;9.30;100.00;100982.78;5072623;28;20024;-61
2022/05/02 00:45:37;;;;;;;16.83;11.68;;;;;;;9.35;100.00;100990.50;5059294;28;20852;-61
2022/05/02 00:48:03;;;;;;;14.43;11.10;;;;;;;9.34;100.00;100983.53;5025224;28;20970;-61
2022/05/02 00:50:33;;;;;;;15.13;11.70;;;;;;;9.32;100.00;100980.13;5025367;28;20028;-60
2022/05/02 00:52:59;;;;;;;13.60;11.98;;;;;;;9.24;100.00;100975.13;5025193;28;20086;-61
2022/05/02 00:55:25;;;;;;;13.88;12.05;;;;;;;9.22;100.00;100975.22;5025080;28;20032;-60
2022/05/02 00:57:50;;;;;;;17.13;12.43;;;;;;;9.15;100.00;100964.97;5007507;28;20033;-61
2022/05/02 01:00:15;;;;;;;16.95;11.85;;;;;;;9.10;100.00;100959.88;5025547;28;20034;-61
2022/05/02 01:02:41;;;;;;;14.18;11.50;;;;;;;9.15;100.00;100968.47;5027407;28;20063;-61
2022/05/02 01:05:06;;;;;;;15.35;12.23;;;;;;;9.11;100.00;100968.63;5027306;28;20835;-61
2022/05/02 01:07:32;;;;;;;14.05;11.55;;;;;;;9.08;100.00;100959.09;5036066;28;20032;-62
2022/05/02 01:09:57;;;;;;;15.35;11.70;;;;;;;9.14;100.00;100968.50;5007972;28;20024;-61
2022/05/02 01:12:25;;;;;;;16.48;12.15;;;;;;;9.09;100.00;100971.28;5024973;28;20036;-62
2022/05/02 01:14:55;;;;;;;14.45;11.60;;;;;;;9.09;100.00;100970.44;5025171;28;20115;-61
2022/05/02 01:17:21;;;;;;;13.60;11.60;;;;;;;9.08;100.00;100966.97;5025595;28;20061;-61
2022/05/02 01:19:47;;;;;;;13.52;11.73;;;;;;;9.07;100.00;100972.25;5030508;28;20060;-61
2022/05/02 01:22:12;;;;;;;17.42;12.50;;;;;;;9.05;100.00;100968.84;5071709;28;20502;-61
2022/05/02 01:24:43;;;;;;;16.42;12.52;;;;;;;8.96;100.00;100956.03;5072212;28;20111;-61
2022/05/02 01:27:10;;;;;;;18.92;12.93;;;;;;;8.83;100.00;100939.00;5072465;28;20463;-61
2022/05/02 01:29:38;;;;;;;16.10;12.25;;;;;;;8.92;100.00;100950.03;5072599;28;20039;-61
2022/05/02 01:32:08;;;;;;;15.98;12.57;;;;;;;8.90;100.00;100957.09;5072263;28;20115;-61
2022/05/02 01:34:35;;;;;;;14.05;12.10;;;;;;;8.83;100.00;100947.75;5054254;28;20029;-61
2022/05/02 01:37:01;;;;;;;12.80;11.27;;;;;;;8.44;100.00;100891.47;5072457;28;20028;-61
2022/05/02 01:39:26;;;;;;;19.45;12.88;;;;;;;8.82;100.00;100951.25;5048608;28;20093;-61
2022/05/02 01:41:52;;;;;;;16.92;12.95;;;;;;;8.83;100.00;100958.22;5026129;28;20875;-61
2022/05/02 01:44:17;;;;;;;18.25;12.98;;;;;;;8.64;100.00;100925.72;5031766;28;20032;-61
2022/05/02 01:46:43;;;;;;;17.42;12.38;;;;;;;8.71;100.00;100951.66;5046735;28;20946;-61
2022/05/02 01:49:08;;;;;;;16.85;12.68;;;;;;;8.67;100.00;100949.16;5049128;28;20043;-61
2022/05/02 01:51:34;;;;;;;16.00;13.30;;;;;;;8.66;100.00;100961.41;5050642;28;20032;-61
2022/05/02 01:53:59;;;;;;;14.27;12.40;;;;;;;8.58;100.00;100959.97;5050378;28;20028;-61
2022/05/02 01:56:25;;;;;;;14.35;12.68;;;;;;;8.50;100.00;100957.59;5049618;28;20961;-61
2022/05/02 01:58:50;;;;;;;19.90;12.93;;;;;;;8.45;100.00;100969.13;5049608;28;20036;-61
2022/05/02 02:01:16;;;;;;;16.45;12.63;;;;;;;8.26;100.00;100941.78;5050210;28;20032;-61
2022/05/02 02:03:41;;;;;;;16.65;11.98;;;;;;;8.27;100.00;100960.06;5048471;28;20792;-61
2022/05/02 02:06:07;;;;;;;14.43;11.82;;;;;;;8.07;100.00;100949.38;5048901;28;20054;-61
2022/05/02 02:08:34;;;;;;;15.65;12.13;;;;;;;8.03;100.00;100960.81;5048793;28;20016;-61
2022/05/02 02:11:01;;;;;;;20.10;14.25;;;;;;;7.78;100.00;100939.78;5049318;28;20094;-62
2022/05/02 02:13:27;;;;;;;16.17;12.35;;;;;;;7.43;100.00;100919.06;5048458;28;20944;-61
2022/05/02 02:15:53;;;;;;;17.88;13.45;;;;;;;7.42;100.00;100944.34;5047377;28;20028;-61
2022/05/02 02:18:18;;;;;;;17.13;13.75;;;;;;;7.15;100.00;100919.81;5047771;28;20055;-61
2022/05/02 02:20:47;;;;;;;15.40;13.52;;;;;;;7.13;100.00;100932.06;5048974;28;20193;-61
2022/05/02 02:23:14;;;;;;;17.15;13.85;;;;;;;6.93;100.00;100934.34;5029219;28;20032;-61
2022/05/02 02:25:40;;;;;;;18.85;14.05;;;;;;;6.89;100.00;100939.72;5048630;28;20035;-61
2022/05/02 02:28:06;;;;;;;17.83;14.43;;;;;;;6.81;100.00;100952.97;5047014;28;20055;-61
2022/05/02 02:30:31;;;;;;;16.98;14.35;;;;;;;6.59;100.00;100921.31;5047098;28;20097;-61
2022/05/02 02:32:58;;;;;;;16.92;14.75;;;;;;;6.57;100.00;100943.16;5048632;28;20024;-61
2022/05/02 02:35:23;;;;;;;23.23;15.85;;;;;;;6.42;100.00;100933.09;5048812;28;20944;-61
2022/05/02 02:37:49;;;;;;;21.88;15.95;;;;;;;6.30;100.00;100951.66;5047292;28;20039;-61
2022/05/02 02:40:15;;;;;;;19.60;16.50;;;;;;;6.18;100.00;100939.78;5046975;28;20038;-61
2022/05/02 02:42:41;;;;;;;16.95;15.20;;;;;;;6.18;100.00;100940.59;5030124;28;20028;-61
2022/05/02 02:45:06;;;;;;;21.23;16.85;;;;;;;6.18;100.00;100933.69;5048554;28;20091;-61
2022/05/02 02:47:32;;;;;;;20.55;16.52;;;;;;;6.08;100.00;100928.66;5049189;28;20063;-61
2022/05/02 02:49:57;;;;;;;17.85;15.75;;;;;;;5.92;100.00;100903.84;5048363;28;20843;-61
2022/05/02 02:52:23;;;;;;;19.52;15.70;;;;;;;5.97;100.00;100930.69;5032573;28;20052;-61
2022/05/02 02:54:48;;;;;;;20.13;17.08;;;;;;;5.85;100.00;100915.25;5027122;28;20037;-61
2022/05/02 02:57:13;;;;;;;22.13;19.20;;;;;;;5.80;100.00;100917.13;5026886;28;20065;-61
2022/05/02 02:59:39;;;;;;;20.55;18.48;;;;;;;5.88;100.00;100920.44;5026400;28;20135;-61
2022/05/02 03:02:06;;;;;;;26.75;21.08;;;;;;;5.92;100.00;100926.44;5026528;28;20063;-61
2022/05/02 03:07:16;;;;;;;24.92;20.15;;;;;;;5.98;100.00;100924.56;5027651;28;20151;-61
2022/05/02 03:09:41;;;;;;;28.50;20.83;;;;;;;6.00;100.00;100914.09;5028114;28;20025;-61
2022/05/02 03:12:07;;;;;;;23.17;18.63;;;;;;;5.83;100.00;100903.16;5028173;28;20036;-61
2022/05/02 03:14:33;;;;;;;28.20;22.40;;;;;;;5.94;100.00;100917.72;5008408;28;20040;-60
2022/05/02 03:16:58;;;;;;;25.75;21.15;;;;;;;5.90;100.00;100897.81;5028941;28;20034;-61
2022/05/02 03:19:23;;;;;;;28.02;22.90;;;;;;;5.95;100.00;100903.75;5027374;28;20028;-61
2022/05/02 03:21:49;;;;;;;29.05;20.95;;;;;;;6.03;100.00;100912.28;5026692;28;20613;-61
2022/05/02 03:24:14;;;;;;;29.35;22.17;;;;;;;6.00;100.00;100898.44;5027611;28;20048;-61
2022/05/02 03:26:40;;;;;;;27.35;23.48;;;;;;;6.02;100.00;100894.91;5026672;28;20144;-61
2022/05/02 03:29:05;;;;;;;28.60;22.40;;;;;;;6.05;100.00;100902.66;5027911;28;20064;-61
2022/05/02 03:31:31;;;;;;;35.10;23.70;;;;;;;6.00;100.00;100890.63;5025869;28;20029;-61
2022/05/02 03:33:56;;;;;;;28.15;21.77;;;;;;;6.07;100.00;100900.88;5025952;28;20024;-61
2022/05/02 03:36:22;;;;;;;26.50;21.75;;;;;;;5.99;100.00;100887.16;5027801;28;20067;-61
2022/05/02 03:38:47;;;;;;;25.98;20.48;;;;;;;5.98;100.00;100901.09;5031417;28;20035;-61
2022/05/02 03:41:12;;;;;;;27.73;21.25;;;;;;;5.82;100.00;100894.47;5030000;28;20036;-61
2022/05/02 03:43:38;;;;;;;28.23;21.48;;;;;;;5.83;100.00;100901.41;5029230;28;20025;-62
2022/05/02 03:46:03;;;;;;;30.17;21.15;;;;;;;5.79;100.00;100891.94;5010997;28;20040;-61
2022/05/02 03:48:28;;;;;;;32.63;21.35;;;;;;;5.61;100.00;100863.69;5027421;28;20052;-61
2022/05/02 03:50:54;;;;;;;27.92;20.48;;;;;;;5.57;100.00;100883.75;5027479;28;20037;-61
2022/05/02 03:53:20;;;;;;;27.70;20.80;;;;;;;5.36;100.00;100879.00;5028211;28;20876;-61
2022/05/02 03:55:46;;;;;;;30.98;20.90;;;;;;;5.27;100.00;100880.94;5027985;28;20028;-61
2022/05/02 03:58:12;;;;;;;27.20;21.20;;;;;;;5.26;100.00;100902.66;5026581;28;20907;-61
2022/05/02 04:00:38;;;;;;;27.00;22.75;;;;;;;5.19;100.00;100911.50;5027088;28;20027;-61
2022/05/02 04:03:03;;;;;;;30.52;22.80;;;;;;;5.03;100.00;100900.53;5027759;28;20029;-61
2022/05/02 04:05:29;;;;;;;27.10;21.85;;;;;;;5.05;100.00;100915.22;5026150;28;20032;-62
2022/05/02 04:07:54;;;;;;;28.67;22.00;;;;;;;4.93;100.00;100912.88;5028055;28;20148;-61
2022/05/02 04:10:20;;;;;;;28.67;24.67;;;;;;;4.90;100.00;100920.72;5025828;28;20967;-61
2022/05/02 04:12:46;;;;;;;30.77;24.98;;;;;;;4.83;100.00;100903.53;5027605;28;20835;-61
2022/05/02 04:15:12;;;;;;;27.77;23.67;;;;;;;4.84;100.00;100918.22;5026163;28;20024;-61
2022/05/02 04:17:38;;;;;;;28.85;25.05;;;;;;;4.77;100.00;100914.03;5025541;28;20055;-61
2022/05/02 04:20:05;;;;;;;30.55;23.40;;;;;;;4.73;100.00;100901.94;5044283;28;20025;-61
2022/05/02 04:22:31;;;;;;;26.63;22.30;;;;;;;4.80;100.00;100918.34;5033318;28;20029;-61
2022/05/02 04:24:56;;;;;;;31.90;24.85;;;;;;;4.80;100.00;100911.34;5027378;28;20079;-61
2022/05/02 04:27:22;;;;;;;31.27;23.35;;;;;;;4.81;100.00;100920.03;5043129;28;20364;-61
2022/05/02 04:29:47;;;;;;;37.65;25.45;;;;;;;4.72;100.00;100909.78;5037493;28;20025;-61
2022/05/02 04:32:13;;;;;;;29.77;22.95;;;;;;;4.61;100.00;100910.84;5047059;28;20033;-61
2022/05/02 04:34:38;;;;;;;27.95;24.73;;;;;;;4.67;100.00;100912.47;5073350;28;20051;-61
2022/05/02 04:37:04;;;;;;;35.28;25.88;;;;;;;4.57;100.00;100906.56;5073318;28;20032;-61
2022/05/02 04:39:29;;;;;;;33.17;26.00;;;;;;;4.61;100.00;100917.78;5073447;28;20082;-61
2022/05/02 04:41:55;;;;;;;37.38;25.73;;;;;;;4.59;100.00;100912.63;5072572;28;20064;-60
2022/05/02 04:44:20;;;;;;;32.13;25.23;;;;;;;4.65;100.00;100916.84;5073128;28;20028;-61
2022/05/02 04:46:45;;;;;;;34.50;25.02;;;;;;;4.61;100.00;100915.19;5073069;28;20431;-60
2022/05/02 04:49:11;;;;;;;26.90;23.58;;;;;;;4.64;100.00;100917.72;5063910;28;20090;-60
2022/05/02 04:51:36;;;;;;;31.88;26.30;;;;;;;4.60;100.00;100923.88;5028703;28;20021;-61
2022/05/02 04:54:02;;;;;;;36.05;25.38;;;;;;;4.37;100.00;100881.78;5027293;28;20029;-61
2022/05/02 04:56:27;;;;;;;37.45;27.75;;;;;;;4.46;100.00;100918.06;5027181;28;20028;-61
2022/05/02 04:58:53;;;;;;;31.55;25.08;;;;;;;4.46;100.00;100924.09;5027169;28;20082;-61
2022/05/02 05:01:19;;;;;;;31.63;25.67;;;;;;;4.55;100.00;100926.56;5028778;28;20040;-61
2022/05/02 05:03:44;;;;;;;30.90;26.05;;;;;;;4.53;100.00;100922.25;5028344;28;20034;-61
2022/05/02 05:06:09;;;;;;;27.67;24.67;;;;;;;4.48;100.00;100900.69;5071138;28;20416;-61
2022/05/02 05:08:35;;;;;;;38.10;25.70;;;;;;;4.66;100.00;100926.41;5066659;28;20542;-61
2022/05/02 05:11:15;;;;;;;32.22;26.00;;;;;;;4.77;100.00;100931.38;5072704;28;20024;-63
2022/05/02 05:17:30;;;;;;;34.97;26.73;;;;;;;5.00;100.00;100926.63;5032417;28;20047;-61
2022/05/02 05:20:02;;;;;;;33.55;26.23;;;;;;;5.04;100.00;100929.13;5025770;28;20036;-62
2022/05/02 05:22:48;;;;;;;33.45;27.75;;;;;;;5.11;100.00;100930.72;5039858;28;20037;-61
2022/05/02 05:25:59;;;;;;;35.97;25.42;;;;;;;5.23;100.00;100931.38;5072687;28;20059;-61
2022/05/02 05:28:46;;;;;;;40.13;28.77;;;;;;;5.40;100.00;100924.09;5041054;28;20044;-62
2022/05/02 05:31:31;;;;;;;33.22;27.13;;;;;;;5.53;100.00;100910.78;5072488;28;20046;-61
2022/05/02 05:34:07;;;;;;;32.55;26.08;;;;;;;5.68;100.00;100902.59;5072579;28;20032;-61
2022/05/02 05:37:05;;;;;;;30.02;25.73;;;;;;;5.98;100.00;100932.38;5073032;28;20028;-61
2022/05/02 05:39:49;;;;;;;35.42;26.50;;;;;;;6.04;100.00;100900.97;5072598;28;20107;-62
2022/05/02 05:42:21;;;;;;;33.53;25.77;;;;;;;6.35;100.00;100923.72;5026928;28;20055;-62
2022/05/02 05:45:04;;;;;;;27.65;24.48;;;;;;;6.49;100.00;100926.84;5026615;28;20082;-62
2022/05/02 05:47:48;;;;;;;29.05;24.25;;;;;;;6.57;100.00;100924.88;5025278;28;20094;-62
2022/05/02 05:50:23;;;;;;;22.30;17.98;;;;;;;6.64;100.00;100929.03;5025039;28;20029;-62
2022/05/02 05:53:10;;;;;;;27.55;23.77;;;;;;;6.77;100.00;100924.34;5027287;28;20024;-62
2022/05/02 05:56:03;;;;;;;27.27;24.17;;;;;;;6.95;100.00;100924.75;5027365;28;20086;-62
2022/05/02 05:58:57;;;;;;;31.55;24.33;;;;;;;7.19;100.00;100938.91;5025743;28;20188;-61
2022/05/02 06:02:05;;;;;;;26.10;21.92;;;;;;;7.39;100.00;100931.34;5033506;28;20036;-61
2022/05/02 06:04:32;;;;;;;24.83;20.27;;;;;;;7.60;100.00;100933.31;5026704;28;20056;-62
2022/05/02 06:06:58;;;;;;;23.38;20.77;;;;;;;7.77;100.00;100939.84;5051638;28;20079;-61
2022/05/02 06:09:27;;;;;;;27.67;20.40;;;;;;;7.90;100.00;100931.56;5071997;28;20025;-61
2022/05/02 06:11:55;;;;;;;25.67;20.77;;;;;;;8.01;100.00;100929.44;5036755;28;20036;-62
2022/05/02 06:14:21;;;;;;;25.80;18.73;;;;;;;8.15;100.00;100923.78;5032367;28;20095;-61
2022/05/02 06:19:32;;;;;;;24.48;18.35;;;;;;;8.27;100.00;100901.59;5053676;28;20058;-61
2022/05/02 06:22:00;;;;;;;20.77;18.13;;;;;;;8.58;100.00;100931.16;5038974;28;20131;-61
2022/05/02 06:24:27;;;;;;;21.45;16.95;;;;;;;8.71;100.00;100941.16;5056210;28;20034;-62
2022/05/02 06:26:54;;;;;;;19.95;16.33;;;;;;;8.78;100.00;100939.19;5038640;28;20090;-61
2022/05/02 06:29:20;;;;;;;21.40;16.75;;;;;;;8.85;100.00;100938.09;5060996;28;20623;-61
2022/05/02 06:31:47;;;;;;;22.45;17.67;;;;;;;8.85;100.00;100927.59;5061863;28;20036;-61
2022/05/02 06:34:13;;;;;;;21.60;16.65;;;;;;;9.03;100.00;100939.19;5040579;28;20100;-61
2022/05/02 06:36:46;;;;;;;23.90;16.85;;;;;;;9.15;100.00;100942.25;5045439;28;20034;-61
2022/05/02 06:39:23;;;;;;;18.98;15.40;;;;;;;9.29;100.00;100944.38;5066256;28;20039;-61
2022/05/02 06:42:07;;;;;;;23.10;15.98;;;;;;;9.42;100.00;100944.78;5080493;28;20096;-61
2022/05/02 06:44:49;;;;;;;18.48;15.18;;;;;;;9.49;100.00;100935.78;5096044;28;20028;-61
2022/05/02 06:47:45;;;;;;;17.20;14.98;;;;;;;9.64;100.00;100940.44;5095579;28;20040;-61
2022/05/02 06:50:17;;;;;;;19.13;15.63;;;;;;;9.41;100.00;100890.59;5095943;28;20028;-60
2022/05/02 06:52:52;;;;;;;19.38;14.88;;;;;;;9.89;100.00;100946.47;5080617;28;20066;-61
2022/05/02 06:55:56;;;;;;;;;;;;;;;10.00;100.00;100946.06;5079180;28;20127;-61
2022/05/02 06:58:51;;;;;;;20.25;13.43;;;;;;;10.16;100.00;100940.19;5050957;28;19959;-61
2022/05/02 07:01:34;;;;;;;15.95;12.45;;;;;;;10.27;100.00;100936.28;5044317;28;20501;-61
2022/05/02 07:04:21;;;;;;;16.08;13.45;;;;;;;10.42;100.00;100940.88;5085703;28;20047;-61
2022/05/02 07:06:49;;;;;;;16.77;12.85;;;;;;;10.52;100.00;100936.97;5084689;28;20032;-62
2022/05/02 07:09:24;;;;;;;13.82;12.07;;;;;;;10.58;100.00;100936.69;5074170;28;20097;-62
2022/05/02 07:11:55;;;;;;;27.48;11.15;;;;;;;10.72;100.00;100942.25;5074647;28;20028;-61
2022/05/02 07:14:31;;;;;;;16.23;12.75;;;;;;;10.84;100.00;100936.50;5074864;28;20082;-61
2022/05/02 07:17:04;;;;;;;16.80;12.95;;;;;;;10.94;100.00;100939.56;5056790;28;20059;-61
2022/05/02 07:19:48;;;;;;;28.20;11.85;;;;;;;11.01;100.00;100933.13;5074849;28;20036;-62
2022/05/02 07:22:33;;;;;;;14.13;11.52;;;;;;;11.05;100.00;100927.66;5057118;28;20471;-61
2022/05/02 07:25:22;;;;;;;19.27;11.30;;;;;;;11.19;100.00;100937.56;5056573;28;20033;-62
2022/05/02 07:28:05;;;;;;;13.45;10.88;;;;;;;11.29;100.00;100937.09;5056623;28;20550;-61
2022/05/02 07:30:30;;;;;;;12.55;9.68;;;;;;;11.40;100.00;100925.25;5056193;28;20082;-61
2022/05/02 07:32:56;;;;;;;12.35;10.23;;;;;;;11.56;100.00;100934.16;5077336;28;20382;-62
2022/05/02 07:35:22;;;;;;;11.23;8.63;;;;;;;11.67;100.00;100939.78;5073705;28;20438;-61
2022/05/02 07:37:48;;;;;;;10.13;7.40;;;;;;;11.72;100.00;100935.22;5073670;28;20025;-61
2022/05/02 07:40:17;;;;;;;18.90;7.45;;;;;;;11.80;100.00;100933.06;5091256;28;20028;-61
2022/05/02 07:42:44;;;;;;;11.45;6.78;;;;;;;11.76;100.00;100905.19;5094304;28;20035;-61
2022/05/02 07:45:10;;;;;;;12.90;6.97;;;;;;;12.04;100.00;100941.59;5092894;28;20478;-61
2022/05/02 07:47:37;;;;;;;10.23;7.75;;;;;;;12.05;100.00;100945.94;5109342;28;20031;-61
2022/05/02 07:50:04;;;;;;;8.25;5.57;;;;;;;12.11;100.00;100943.00;5093929;28;20032;-61
2022/05/02 07:52:30;;;;;;;8.13;6.30;;;;;;;12.14;100.00;100932.31;5093343;28;20024;-61
2022/05/02 07:54:58;;;;;;;10.07;7.57;;;;;;;12.24;100.00;100937.06;5058528;28;20105;-61
2022/05/02 07:57:24;;;;;;;13.18;8.15;;;;;;;12.33;100.00;100933.16;5093599;28;20081;-62
2022/05/02 07:59:54;;;;;;;10.48;7.65;;;;;;;12.46;100.00;100944.78;5093925;28;20421;-61
2022/05/02 08:02:22;;;;;;;8.25;7.30;;;;;;;12.54;100.00;100939.16;5093988;28;20105;-61
2022/05/02 08:04:47;;;;;;;12.98;8.48;;;;;;;12.48;100.00;100923.63;5093767;28;20028;-61
2022/05/02 08:07:28;;;;;;;12.27;9.13;;;;;;;12.43;100.00;100900.16;5094256;28;20028;-61
2022/05/02 08:09:58;;;;;;;14.07;9.50;;;;;;;12.72;100.00;100946.13;5093849;28;20117;-61
2022/05/02 08:12:33;;;;;;;13.23;9.30;;;;;;;12.75;100.00;100938.06;5093568;28;20112;-61
2022/05/02 08:15:24;;;;;;;14.77;9.20;;;;;;;12.77;100.00;100936.22;5094148;28;20120;-61
2022/05/02 08:17:49;;;;;;;15.65;9.15;;;;;;;12.81;100.00;100940.38;5093805;28;20034;-61
2022/05/02 08:20:42;;;;;;;16.05;9.27;;;;;;;12.88;100.00;100940.91;5093069;28;20028;-61
2022/05/02 08:29:43;;;;;;;13.57;10.02;;;;;;;13.14;100.00;100933.44;5093040;28;20042;-61
2022/05/02 08:32:22;;;;;;;17.23;12.10;;;;;;;13.21;100.00;100933.97;5092663;28;20386;-61
2022/05/02 08:35:03;;;;;;;15.88;11.07;;;;;;;13.26;100.00;100932.78;5093174;28;20039;-61
2022/05/02 08:37:31;;;;;;;13.55;10.05;;;;;;;13.34;100.00;100935.03;5093769;28;20035;-61
2022/05/02 08:40:10;;;;;;;17.75;10.40;;;;;;;13.45;100.00;100937.09;5093628;28;20036;-61
2022/05/02 08:43:20;;;;;;;14.20;10.98;;;;;;;13.50;100.00;100937.69;5092978;28;20040;-61
2022/05/02 08:46:04;;;;;;;16.55;11.85;;;;;;;13.48;96.51;100926.38;5021149;28;20042;-61
2022/05/02 08:51:54;;;;;;;15.73;11.15;;;;;;;13.65;94.48;100931.59;5093168;28;20039;-61
2022/05/02 08:54:45;;;;;;;12.75;10.88;;;;;;;13.73;96.86;100927.59;5074597;28;20031;-60
2022/05/02 08:57:33;;;;;;;14.07;10.50;;;;;;;13.72;95.14;100920.59;5057706;28;20028;-61
2022/05/02 09:00:07;;;;;;;13.55;9.90;;;;;;;13.84;95.50;100924.34;5074534;28;20031;-61
2022/05/02 09:02:51;;;;;;;14.55;10.10;;;;;;;13.94;95.00;100917.63;5081422;28;20059;-61
2022/05/02 09:05:17;;;;;;;14.00;10.98;;;;;;;13.98;93.82;100916.53;5072586;28;20132;-61
2022/05/02 09:07:57;;;;;;;12.68;9.75;;;;;;;14.10;91.76;100920.25;5071523;28;20554;-61
2022/05/02 09:10:31;;;;;;;16.05;11.60;;;;;;;13.99;90.10;100897.06;5072734;28;20036;-61
2022/05/02 09:13:23;;;;;;;15.27;10.60;;;;;;;14.19;89.48;100920.56;5072420;28;20495;-61
2022/05/02 09:16:14;;;;;;;16.05;10.30;;;;;;;14.23;89.22;100919.47;5058744;28;20371;-61
2022/05/02 09:18:51;;;;;;;13.85;11.07;;;;;;;14.30;85.37;100917.31;5071752;28;20028;-62
2022/05/02 09:21:24;;;;;;;13.80;11.20;;;;;;;14.15;87.04;100887.34;5060162;28;20766;-62
2022/05/02 09:24:17;;;;;;;15.70;11.80;;;;;;;14.20;89.98;100874.72;5045627;28;20806;-62
2022/05/02 09:27:21;;;;;;;16.00;10.95;;;;;;;14.61;88.76;100911.16;5075547;28;20550;-62
2022/05/02 09:30:24;;;;;;;13.20;10.35;;;;;;;14.72;87.77;100914.03;5072431;28;20029;-61
2022/05/02 09:33:02;;;;;;;15.63;10.38;;;;;;;14.66;84.41;100906.47;5072308;28;20043;-61
2022/05/02 09:35:31;;;;;;;16.05;10.43;;;;;;;14.82;86.97;100916.03;5066280;28;20036;-61
2022/05/02 09:37:59;;;;;;;13.45;10.05;;;;;;;14.94;85.19;100914.44;5063114;28;20060;-61
2022/05/02 09:40:36;;;;;;;12.88;11.23;;;;;;;15.05;86.93;100917.31;5072054;28;20036;-61
2022/05/02 09:43:07;;;;;;;13.82;11.45;;;;;;;15.11;82.50;100922.22;5071894;28;20386;-61
2022/05/02 09:52:02;;;;;;;20.10;13.57;;;;;;;15.32;81.44;100904.19;5072282;28;20040;-60
2022/05/02 09:58:34;;;;;;;14.35;11.15;;;;;;;15.49;81.93;100884.63;5011690;28;20052;-61
2022/05/02 10:01:06;;;;;;;;;;;;;;;15.63;83.16;100889.91;5027587;28;20029;-61
2022/05/02 10:03:59;;;;;;;17.63;11.50;;;;;;;15.74;79.60;100880.34;5026558;28;19923;-61
2022/05/02 10:06:30;;;;;;;18.02;11.20;;;;;;;15.61;76.95;100889.16;5025770;28;20139;-61
2022/05/02 10:09:00;;;;;;;14.10;11.02;;;;;;;15.58;78.67;100871.66;5026412;28;20034;-62
2022/05/02 10:11:38;;;;;;;23.55;12.35;;;;;;;15.72;76.64;100889.31;5065449;28;20059;-61
2022/05/02 10:14:31;;;;;;;20.20;10.45;;;;;;;15.75;78.64;100873.22;5075587;28;20029;-61
2022/05/02 10:17:12;;;;;;;15.02;11.93;;;;;;;15.94;75.74;100887.03;5075437;28;20063;-61
2022/05/02 10:19:59;;;;;;;13.93;11.82;;;;;;;15.97;77.79;100881.50;5075358;28;20057;-61
2022/05/02 10:22:47;;;;;;;16.00;11.85;;;;;;;16.10;76.29;100885.06;5074987;28;20130;-61
2022/05/02 10:25:34;;;;;;;15.25;11.60;;;;;;;16.12;74.94;100883.16;5074767;28;20036;-61
2022/05/02 10:28:07;;;;;;;16.15;11.82;;;;;;;16.21;74.77;100874.63;5057295;28;20020;-61
2022/05/02 10:30:59;;;;;;;13.43;11.00;;;;;;;16.23;74.27;100874.50;5075637;28;20048;-61
2022/05/02 10:33:36;;;;;;;15.50;11.60;;;;;;;16.30;75.91;100857.22;5074568;28;20086;-61
2022/05/02 10:36:04;;;;;;;14.00;11.85;;;;;;;16.60;77.97;100864.97;5057474;28;20467;-61
2022/05/02 10:38:30;;;;;;;20.20;12.00;;;;;;;16.81;72.78;100874.97;5075020;28;20021;-61
2022/05/02 10:41:12;;;;;;;19.45;11.95;;;;;;;16.78;72.08;100869.88;5074142;28;20036;-61
2022/05/02 10:43:44;;;;;;;15.50;12.50;;;;;;;16.76;71.78;100868.31;5055774;28;20032;-61
2022/05/02 10:46:11;;;;;;;20.67;12.82;;;;;;;16.74;70.76;100865.75;5074080;28;20024;-61
2022/05/02 10:48:58;;;;;;;15.02;11.80;;;;;;;16.72;71.45;100869.47;5073800;28;20032;-61
2022/05/02 10:51:35;;;;;;;15.13;10.85;;;;;;;16.82;72.91;100849.28;5084518;28;20524;-61
2022/05/02 10:54:27;;;;;;;16.33;12.13;;;;;;;17.08;71.27;100861.59;5075580;28;20035;-61
2022/05/02 10:56:58;;;;;;;13.25;11.20;;;;;;;16.99;69.71;100850.78;5093623;28;20039;-61
2022/05/02 10:59:29;;;;;;;15.63;11.45;;;;;;;17.17;70.94;100860.09;5094072;28;20020;-61
2022/05/02 11:02:38;;;;;;;17.30;12.02;;;;;;;17.11;68.43;100850.78;5080456;28;20028;-61
2022/05/02 11:05:14;;;;;;;17.00;11.55;;;;;;;17.34;68.98;100852.66;5082294;28;20641;-61
2022/05/02 11:07:48;;;;;;;17.65;12.25;;;;;;;17.33;70.06;100845.66;5073103;28;20092;-62
2022/05/02 11:10:14;;;;;;;17.00;11.43;;;;;;;17.14;69.04;100834.63;5080676;28;20486;-62
2022/05/02 11:12:45;;;;;;;13.07;11.68;;;;;;;17.07;69.67;100853.72;5057805;28;20024;-62
2022/05/02 11:15:49;;;;;;;15.63;11.52;;;;;;;17.34;69.93;100843.81;5072920;28;20032;-62
2022/05/02 11:21:46;;;;;;;16.65;12.32;;;;;;;17.40;66.42;100824.81;5057849;28;20090;-62
2022/05/02 11:24:39;;;;;;;16.38;11.27;;;;;;;17.01;67.09;100836.44;5091937;28;20085;-61
2022/05/02 11:27:20;;;;;;;17.15;12.57;;;;;;;16.92;68.36;100833.56;5093057;28;20039;-62
2022/05/02 11:29:45;;;;;;;15.35;11.65;;;;;;;16.85;68.63;100835.81;5092831;28;20040;-61
2022/05/02 11:32:20;;;;;;;18.13;11.45;;;;;;;17.00;69.45;100834.72;5092791;28;20031;-61
2022/05/02 11:35:11;;;;;;;15.20;10.65;;;;;;;16.74;67.15;100830.38;5093563;28;20093;-61
2022/05/02 11:37:54;;;;;;;15.80;11.90;;;;;;;16.65;67.23;100815.09;5072506;28;20032;-62
2022/05/02 11:40:27;;;;;;;15.33;11.57;;;;;;;19.41;64.03;100810.38;5002871;28;2000993;-62
2022/05/02 11:42:52;;;;;;;17.23;10.93;;;;;;;23.40;60.97;100817.47;5056213;28;20032;-61
2022/05/02 11:45:18;;;;;;;14.77;10.68;;;;;;;26.84;54.98;100800.03;5073991;28;20395;-61
2022/05/02 11:48:07;;;;;;;14.52;10.65;;;;;;;29.29;46.28;100824.28;5056251;28;20099;-61
2022/05/02 11:50:54;;;;;;;13.75;9.93;;;;;;;29.88;41.01;100805.19;5073575;28;20083;-62
2022/05/02 11:53:24;;;;;;;21.98;11.90;;;;;;;31.21;41.19;100814.28;5068224;28;20090;-61
2022/05/02 11:55:51;;;;;;;16.02;11.98;;;;;;;31.65;37.17;100800.31;5074376;28;20046;-61
2022/05/02 11:58:26;;;;;;;21.48;11.23;;;;;;;30.13;38.09;100811.09;5093940;28;20024;-62
2022/05/02 12:00:58;;;;;;;19.27;11.20;;;;;;;28.71;39.64;100786.31;5093677;28;20036;-62
2022/05/02 12:03:25;;;;;;;17.05;12.15;;;;;;;26.75;40.78;100819.94;5093601;28;20078;-62
2022/05/02 12:05:55;;;;;;;16.88;11.15;;;;;;;26.87;38.45;100817.72;5093661;28;20107;-62